createdAt,value
2023-04-23T00:00:10.550Z,468.50
2023-04-23T00:01:10.504Z,414.50
2023-04-23T00:02:10.517Z,482.00
2023-04-23T00:03:10.756Z,552.90
2023-04-23T00:04:10.565Z,501.30
2023-04-23T00:05:10.498Z,391.40
2023-04-23T00:06:10.444Z,437.90
2023-04-23T00:07:10.422Z,326.30
2023-04-23T00:08:10.445Z,326.10
2023-04-23T00:09:10.385Z,277.50
2023-04-23T00:10:10.403Z,264.20
2023-04-23T00:11:10.395Z,258.50
2023-04-23T00:12:10.372Z,380.60
2023-04-23T00:13:10.376Z,313.30
2023-04-23T00:14:10.341Z,342.20
2023-04-23T00:15:10.368Z,374.40
2023-04-23T00:16:10.363Z,407.90
2023-04-23T00:17:10.304Z,558.50
2023-04-23T00:18:10.294Z,441.60
2023-04-23T00:19:10.372Z,442.00
2023-04-23T00:20:10.368Z,579.50
2023-04-23T00:21:10.265Z,589.20
2023-04-23T00:22:10.364Z,519.10
2023-04-23T00:23:10.250Z,435.30
2023-04-23T00:24:10.227Z,542.70
2023-04-23T00:25:10.242Z,606.20
2023-04-23T00:26:10.202Z,562.70
2023-04-23T00:27:10.250Z,564.00
2023-04-23T00:28:10.179Z,574.20
2023-04-23T00:29:10.173Z,613.00
2023-04-23T00:30:10.217Z,667.80
2023-04-23T00:31:10.154Z,658.80
2023-04-23T00:32:10.359Z,643.20
2023-04-23T00:33:10.134Z,654.80
2023-04-23T00:34:10.121Z,659.70
2023-04-23T00:35:10.100Z,639.30
2023-04-23T00:36:10.131Z,669.40
2023-04-23T00:37:10.091Z,648.10
2023-04-23T00:38:10.065Z,656.50
2023-04-23T00:39:10.067Z,655.40
2023-04-23T00:40:10.036Z,654.30
2023-04-23T00:41:10.084Z,652.70
2023-04-23T00:42:10.017Z,643.50
2023-04-23T00:43:10.009Z,642.90
2023-04-23T00:44:10.006Z,636.50
2023-04-23T00:45:09.993Z,631.10
2023-04-23T00:46:10.153Z,627.90
2023-04-23T00:47:09.974Z,637.00
2023-04-23T00:48:09.960Z,632.30
2023-04-23T00:49:09.950Z,624.40
2023-04-23T00:50:09.947Z,612.10
2023-04-23T00:51:09.971Z,619.10
2023-04-23T00:52:09.954Z,624.50
2023-04-23T00:53:09.907Z,616.20
2023-04-23T00:54:09.886Z,620.10
2023-04-23T00:55:09.872Z,614.10
2023-04-23T00:56:09.911Z,598.40
2023-04-23T00:57:09.861Z,601.60
2023-04-23T00:58:09.845Z,620.80
2023-04-23T00:59:09.827Z,637.00
2023-04-23T01:00:09.824Z,636.10
2023-04-23T01:01:09.879Z,598.00
2023-04-23T01:02:09.849Z,639.80
2023-04-23T01:03:09.865Z,662.70
2023-04-23T01:04:09.896Z,675.00
2023-04-23T01:05:09.763Z,670.20
2023-04-23T01:06:09.796Z,673.00
2023-04-23T01:07:09.749Z,670.00
2023-04-23T01:08:09.722Z,701.30
2023-04-23T01:09:09.703Z,640.70
2023-04-23T01:10:09.705Z,651.50
2023-04-23T01:11:09.749Z,655.70
2023-04-23T01:12:09.692Z,665.70
2023-04-23T01:13:09.679Z,654.90
2023-04-23T01:14:09.650Z,661.60
2023-04-23T01:15:09.650Z,659.90
2023-04-23T01:16:09.677Z,682.60
2023-04-23T01:17:09.658Z,666.80
2023-04-23T01:18:09.609Z,674.90
2023-04-23T01:19:09.640Z,699.30
2023-04-23T01:20:09.613Z,679.80
2023-04-23T01:21:09.618Z,672.40
2023-04-23T01:22:09.559Z,650.90
2023-04-23T01:23:09.559Z,637.70
2023-04-23T01:24:09.550Z,666.90
2023-04-23T01:25:09.552Z,681.90
2023-04-23T01:26:09.568Z,670.10
2023-04-23T01:27:09.526Z,644.20
2023-04-23T01:28:09.546Z,649.30
2023-04-23T01:29:09.500Z,631.00
2023-04-23T01:30:09.502Z,643.50
2023-04-23T01:31:09.567Z,646.30
2023-04-23T01:32:09.469Z,640.40
2023-04-23T01:33:09.482Z,642.90
2023-04-23T01:34:09.448Z,638.10
2023-04-23T01:35:09.445Z,744.40
2023-04-23T01:36:09.454Z,659.60
2023-04-23T01:37:09.399Z,653.30
2023-04-23T01:38:09.417Z,661.70
2023-04-23T01:39:09.385Z,655.60
2023-04-23T01:40:09.373Z,646.40
2023-04-23T01:41:09.406Z,649.00
2023-04-23T01:42:09.383Z,640.70
2023-04-23T01:43:09.319Z,651.00
2023-04-23T01:44:09.317Z,649.10
2023-04-23T01:45:09.319Z,643.00
2023-04-23T01:46:09.356Z,646.30
2023-04-23T01:47:09.288Z,682.80
2023-04-23T01:48:09.266Z,657.20
2023-04-23T01:49:09.275Z,655.00
2023-04-23T01:50:09.266Z,675.70
2023-04-23T01:51:09.297Z,684.20
2023-04-23T01:52:09.223Z,629.50
2023-04-23T01:53:09.233Z,672.50
2023-04-23T01:54:09.237Z,698.80
2023-04-23T01:55:09.205Z,701.60
2023-04-23T01:56:09.225Z,690.10
2023-04-23T01:57:09.184Z,694.60
2023-04-23T01:58:09.159Z,725.30
2023-04-23T01:59:09.167Z,711.20
2023-04-23T02:00:09.147Z,707.00
2023-04-23T02:01:09.249Z,688.90
2023-04-23T02:02:09.125Z,712.50
2023-04-23T02:03:09.327Z,708.40
2023-04-23T02:04:09.159Z,731.80
2023-04-23T02:05:09.149Z,712.20
2023-04-23T02:06:09.118Z,708.20
2023-04-23T02:07:09.044Z,724.10
2023-04-23T02:08:09.043Z,718.90
2023-04-23T02:09:09.044Z,711.10
2023-04-23T02:10:09.028Z,713.70
2023-04-23T02:11:09.060Z,726.10
2023-04-23T02:12:09.011Z,738.00
2023-04-23T02:13:09.022Z,730.40
2023-04-23T02:14:08.993Z,738.90
2023-04-23T02:15:08.972Z,720.10
2023-04-23T02:16:09.018Z,716.10
2023-04-23T02:17:08.955Z,712.30
2023-04-23T02:18:08.938Z,715.60
2023-04-23T02:19:08.943Z,715.10
2023-04-23T02:20:08.912Z,710.70
2023-04-23T02:21:08.950Z,730.10
2023-04-23T02:22:08.905Z,729.10
2023-04-23T02:23:08.902Z,753.30
2023-04-23T02:24:08.863Z,748.90
2023-04-23T02:25:08.891Z,748.40
2023-04-23T02:26:08.894Z,750.60
2023-04-23T02:27:08.871Z,741.50
2023-04-23T02:28:08.824Z,729.00
2023-04-23T02:29:08.832Z,768.10
2023-04-23T02:30:08.796Z,760.30
2023-04-23T02:31:08.854Z,759.70
2023-04-23T02:32:08.814Z,747.40
2023-04-23T02:33:08.764Z,752.70
2023-04-23T02:34:08.766Z,754.90
2023-04-23T02:35:08.760Z,770.20
2023-04-23T02:36:08.743Z,754.60
2023-04-23T02:37:08.752Z,728.90
2023-04-23T02:38:08.720Z,732.40
2023-04-23T02:39:08.713Z,737.90
2023-04-23T02:40:08.688Z,751.50
2023-04-23T02:41:08.686Z,736.30
2023-04-23T02:42:08.715Z,743.30
2023-04-23T02:43:08.672Z,726.00
2023-04-23T02:44:08.646Z,734.60
2023-04-23T02:45:08.640Z,738.00
2023-04-23T02:46:08.842Z,747.80
2023-04-23T02:47:08.636Z,753.40
2023-04-23T02:48:08.591Z,730.00
2023-04-23T02:49:08.593Z,741.10
2023-04-23T02:50:08.575Z,731.50
2023-04-23T02:51:08.576Z,717.50
2023-04-23T02:52:08.613Z,732.00
2023-04-23T02:53:08.568Z,731.70
2023-04-23T02:54:08.530Z,741.50
2023-04-23T02:55:08.531Z,757.50
2023-04-23T02:56:08.513Z,754.20
2023-04-23T02:57:08.538Z,763.30
2023-04-23T02:58:08.512Z,795.90
2023-04-23T02:59:08.470Z,766.40
2023-04-23T03:00:08.454Z,779.80
2023-04-23T03:01:08.508Z,779.50
2023-04-23T03:02:08.520Z,786.10
2023-04-23T03:03:09.977Z,798.80
2023-04-23T03:04:08.665Z,817.60
2023-04-23T03:05:08.396Z,819.00
2023-04-23T03:06:08.399Z,831.20
2023-04-23T03:07:08.408Z,836.20
2023-04-23T03:08:08.359Z,798.30
2023-04-23T03:09:08.360Z,808.80
2023-04-23T03:10:08.361Z,809.60
2023-04-23T03:11:08.327Z,804.50
2023-04-23T03:12:08.364Z,825.10
2023-04-23T03:13:08.318Z,830.60
2023-04-23T03:14:08.297Z,827.70
2023-04-23T03:15:08.306Z,821.50
2023-04-23T03:16:08.263Z,819.30
2023-04-23T03:17:08.324Z,819.70
2023-04-23T03:18:08.266Z,824.60
2023-04-23T03:19:08.248Z,839.60
2023-04-23T03:20:08.242Z,838.70
2023-04-23T03:21:08.223Z,838.50
2023-04-23T03:22:08.260Z,819.00
2023-04-23T03:23:08.214Z,828.00
2023-04-23T03:24:08.203Z,818.30
2023-04-23T03:25:08.178Z,841.40
2023-04-23T03:26:08.177Z,857.80
2023-04-23T03:27:08.192Z,861.80
2023-04-23T03:28:08.131Z,864.60
2023-04-23T03:29:08.130Z,838.50
2023-04-23T03:30:08.126Z,853.70
2023-04-23T03:31:08.180Z,875.20
2023-04-23T03:32:08.140Z,875.10
2023-04-23T03:33:08.073Z,879.20
2023-04-23T03:34:08.070Z,885.00
2023-04-23T03:35:08.064Z,889.20
2023-04-23T03:36:08.071Z,889.60
2023-04-23T03:37:08.096Z,906.90
2023-04-23T03:38:08.033Z,911.90
2023-04-23T03:39:08.031Z,893.10
2023-04-23T03:40:08.021Z,903.00
2023-04-23T03:41:07.987Z,913.60
2023-04-23T03:42:08.037Z,923.80
2023-04-23T03:43:07.999Z,927.40
2023-04-23T03:44:07.953Z,927.40
2023-04-23T03:45:07.938Z,932.70
2023-04-23T03:46:07.970Z,929.30
2023-04-23T03:47:07.934Z,927.50
2023-04-23T03:48:07.951Z,940.20
2023-04-23T03:49:07.898Z,922.00
2023-04-23T03:50:07.886Z,923.60
2023-04-23T03:51:07.876Z,913.60
2023-04-23T03:52:07.861Z,921.90
2023-04-23T03:53:07.927Z,918.40
2023-04-23T03:54:07.837Z,926.00
2023-04-23T03:55:07.836Z,915.60
2023-04-23T03:56:07.877Z,911.60
2023-04-23T03:57:07.812Z,894.70
2023-04-23T03:58:07.863Z,910.80
2023-04-23T03:59:07.789Z,890.30
2023-04-23T04:00:07.776Z,893.50
2023-04-23T04:01:07.788Z,890.60
2023-04-23T04:02:07.951Z,882.10
2023-04-23T04:03:07.946Z,874.20
2023-04-23T04:04:08.089Z,899.30
2023-04-23T04:05:07.977Z,877.30
2023-04-23T04:06:07.728Z,876.10
2023-04-23T04:07:07.758Z,887.60
2023-04-23T04:08:07.711Z,859.30
2023-04-23T04:09:07.698Z,878.20
2023-04-23T04:10:07.681Z,883.30
2023-04-23T04:11:07.651Z,889.30
2023-04-23T04:12:07.694Z,881.50
2023-04-23T04:13:07.648Z,855.30
2023-04-23T04:14:07.619Z,839.00
2023-04-23T04:15:07.629Z,833.10
2023-04-23T04:16:07.608Z,863.10
2023-04-23T04:17:07.584Z,838.70
2023-04-23T04:18:07.631Z,828.60
2023-04-23T04:19:07.580Z,848.50
2023-04-23T04:20:07.583Z,824.50
2023-04-23T04:21:07.592Z,832.40
2023-04-23T04:22:07.553Z,836.30
2023-04-23T04:23:07.588Z,814.50
2023-04-23T04:24:07.515Z,818.40
2023-04-23T04:25:07.496Z,778.40
2023-04-23T04:26:07.485Z,768.90
2023-04-23T04:27:07.468Z,779.70
2023-04-23T04:28:07.493Z,791.10
2023-04-23T04:29:07.464Z,750.20
2023-04-23T04:30:07.468Z,715.60
2023-04-23T04:31:07.452Z,738.50
2023-04-23T04:32:07.403Z,768.50
2023-04-23T04:33:07.425Z,740.20
2023-04-23T04:34:07.390Z,712.50
2023-04-23T04:35:07.380Z,722.50
2023-04-23T04:36:07.361Z,724.50
2023-04-23T04:37:07.362Z,735.50
2023-04-23T04:38:07.386Z,747.40
2023-04-23T04:39:07.333Z,717.00
2023-04-23T04:40:07.351Z,730.30
2023-04-23T04:41:07.325Z,739.90
2023-04-23T04:42:07.361Z,744.70
2023-04-23T04:43:07.331Z,738.50
2023-04-23T04:44:07.277Z,710.50
2023-04-23T04:45:07.268Z,727.50
2023-04-23T04:46:07.729Z,706.40
2023-04-23T04:47:07.304Z,716.90
2023-04-23T04:48:07.260Z,707.80
2023-04-23T04:49:07.217Z,664.60
2023-04-23T04:50:07.207Z,660.20
2023-04-23T04:51:07.206Z,673.70
2023-04-23T04:52:07.177Z,670.50
2023-04-23T04:53:07.204Z,644.90
2023-04-23T04:54:07.153Z,633.10
2023-04-23T04:55:07.180Z,650.10
2023-04-23T04:56:07.146Z,646.40
2023-04-23T04:57:07.125Z,678.00
2023-04-23T04:58:07.165Z,685.40
2023-04-23T04:59:07.111Z,700.40
2023-04-23T05:00:07.086Z,716.90
2023-04-23T05:01:07.136Z,720.60
2023-04-23T05:02:07.137Z,731.90
2023-04-23T05:03:07.185Z,710.20
2023-04-23T05:04:07.218Z,699.50
2023-04-23T05:05:07.039Z,671.60
2023-04-23T05:06:07.007Z,708.70
2023-04-23T05:07:07.018Z,678.20
2023-04-23T05:08:07.041Z,644.90
2023-04-23T05:09:06.999Z,662.50
2023-04-23T05:10:06.990Z,695.40
2023-04-23T05:11:06.965Z,712.00
2023-04-23T05:12:06.958Z,690.90
2023-04-23T05:13:06.989Z,669.50
2023-04-23T05:14:06.924Z,710.40
2023-04-23T05:15:06.918Z,707.50
2023-04-23T05:16:06.896Z,574.00
2023-04-23T05:17:06.973Z,193.00
2023-04-23T05:18:06.926Z,85.20
2023-04-23T05:19:06.866Z,130.20
2023-04-23T05:20:06.873Z,112.90
2023-04-23T05:21:06.857Z,94.60
2023-04-23T05:22:06.858Z,79.20
2023-04-23T05:23:06.864Z,94.40
2023-04-23T05:24:06.835Z,55.30
2023-04-23T05:25:06.820Z,60.70
2023-04-23T05:26:06.806Z,69.60
2023-04-23T05:27:06.787Z,61.60
2023-04-23T05:28:06.807Z,68.30
2023-04-23T05:29:06.788Z,65.70
2023-04-23T05:30:06.742Z,63.90
2023-04-23T05:31:06.756Z,59.30
2023-04-23T05:32:06.754Z,59.30
2023-04-23T05:33:06.836Z,48.00
2023-04-23T05:34:06.728Z,40.50
2023-04-23T05:35:06.710Z,42.30
2023-04-23T05:36:06.693Z,47.50
2023-04-23T05:37:06.674Z,372.70
2023-04-23T05:38:06.703Z,343.60
2023-04-23T05:39:06.658Z,424.30
2023-04-23T05:40:06.639Z,471.50
2023-04-23T05:41:06.619Z,425.10
2023-04-23T05:42:06.627Z,370.20
2023-04-23T05:43:06.642Z,504.40
2023-04-23T05:44:06.597Z,425.40
2023-04-23T05:45:08.547Z,344.80
2023-04-23T05:46:06.620Z,390.20
2023-04-23T05:47:06.556Z,286.90
2023-04-23T05:48:06.641Z,303.70
2023-04-23T05:49:06.546Z,315.10
2023-04-23T05:50:06.514Z,329.70
2023-04-23T05:51:06.495Z,410.60
2023-04-23T05:52:06.504Z,446.80
2023-04-23T05:53:06.496Z,346.60
2023-04-23T05:54:06.476Z,349.00
2023-04-23T05:55:06.434Z,361.10
2023-04-23T05:56:06.487Z,363.50
2023-04-23T05:57:06.452Z,366.90
2023-04-23T05:58:06.472Z,451.90
2023-04-23T05:59:06.436Z,489.00
2023-04-23T06:00:06.410Z,456.90
2023-04-23T06:01:06.381Z,536.00
2023-04-23T06:02:06.543Z,502.20
2023-04-23T06:03:06.550Z,523.60
2023-04-23T06:04:06.630Z,486.20
2023-04-23T06:05:06.449Z,516.80
2023-04-23T06:06:06.359Z,466.20
2023-04-23T06:07:06.356Z,505.20
2023-04-23T06:08:06.360Z,483.50
2023-04-23T06:09:06.298Z,488.60
2023-04-23T06:10:06.280Z,513.90
2023-04-23T06:11:06.270Z,556.90
2023-04-23T06:12:06.279Z,530.00
2023-04-23T06:13:06.299Z,527.70
2023-04-23T06:14:06.241Z,492.70
2023-04-23T06:15:06.244Z,574.80
2023-04-23T06:16:06.244Z,474.70
2023-04-23T06:17:06.216Z,481.40
2023-04-23T06:18:06.328Z,466.50
2023-04-23T06:19:06.208Z,420.20
2023-04-23T06:20:06.184Z,414.20
2023-04-23T06:21:06.162Z,452.70
2023-04-23T06:22:06.173Z,470.10
2023-04-23T06:23:06.130Z,506.00
2023-04-23T06:24:06.162Z,474.90
2023-04-23T06:25:06.114Z,459.00
2023-04-23T06:26:06.102Z,479.70
2023-04-23T06:27:06.099Z,467.30
2023-04-23T06:28:06.082Z,520.20
2023-04-23T06:29:06.107Z,524.30
2023-04-23T06:30:06.062Z,538.80
2023-04-23T06:31:06.089Z,445.70
2023-04-23T06:32:06.036Z,410.90
2023-04-23T06:33:06.044Z,457.50
2023-04-23T06:34:06.091Z,503.10
2023-04-23T06:35:06.270Z,470.30
2023-04-23T06:36:06.013Z,483.10
2023-04-23T06:37:05.978Z,479.30
2023-04-23T06:38:05.967Z,447.10
2023-04-23T06:39:06.002Z,526.20
2023-04-23T06:40:05.948Z,531.70
2023-04-23T06:41:05.968Z,621.60
2023-04-23T06:42:05.941Z,578.90
2023-04-23T06:43:05.919Z,563.40
2023-04-23T06:44:05.937Z,591.60
2023-04-23T06:45:06.467Z,622.50
2023-04-23T06:46:05.868Z,556.10
2023-04-23T06:47:05.950Z,358.40
2023-04-23T06:48:05.890Z,568.10
2023-04-23T06:49:05.898Z,220.00
2023-04-23T06:50:05.831Z,313.40
2023-04-23T06:51:05.825Z,263.70
2023-04-23T06:52:05.806Z,239.40
2023-04-23T06:53:05.798Z,260.80
2023-04-23T06:54:05.842Z,367.80
2023-04-23T06:55:05.787Z,179.30
2023-04-23T06:56:05.777Z,402.00
2023-04-23T06:57:05.745Z,226.40
2023-04-23T06:58:05.739Z,194.40
2023-04-23T06:59:05.782Z,174.00
2023-04-23T07:00:05.745Z,171.30
2023-04-23T07:01:05.772Z,177.80
2023-04-23T07:02:05.746Z,208.20
2023-04-23T07:03:05.833Z,255.20
2023-04-23T07:04:05.713Z,135.80
2023-04-23T07:05:05.676Z,263.10
2023-04-23T07:06:05.664Z,274.60
2023-04-23T07:07:05.651Z,212.20
2023-04-23T07:08:05.667Z,211.80
2023-04-23T07:09:05.671Z,167.20
2023-04-23T07:10:05.632Z,182.70
2023-04-23T07:11:05.779Z,197.00
2023-04-23T07:12:05.615Z,270.00
2023-04-23T07:13:05.603Z,253.60
2023-04-23T07:14:05.579Z,352.10
2023-04-23T07:15:05.673Z,257.20
2023-04-23T07:16:05.549Z,227.40
2023-04-23T07:17:05.652Z,142.40
2023-04-23T07:18:05.535Z,121.00
2023-04-23T07:19:05.558Z,231.50
2023-04-23T07:20:05.557Z,251.60
2023-04-23T07:21:05.534Z,254.80
2023-04-23T07:22:05.494Z,138.90
2023-04-23T07:23:05.510Z,190.50
2023-04-23T07:24:05.472Z,185.10
2023-04-23T07:25:05.522Z,221.20
2023-04-23T07:26:05.469Z,238.00
2023-04-23T07:27:05.444Z,225.80
2023-04-23T07:28:05.451Z,240.50
2023-04-23T07:29:05.416Z,299.10
2023-04-23T07:30:05.458Z,238.80
2023-04-23T07:31:05.424Z,279.00
2023-04-23T07:32:05.410Z,245.70
2023-04-23T07:33:05.415Z,238.60
2023-04-23T07:34:05.355Z,164.00
2023-04-23T07:35:05.389Z,129.50
2023-04-23T07:36:05.388Z,101.90
2023-04-23T07:37:05.365Z,83.70
2023-04-23T07:38:05.349Z,82.70
2023-04-23T07:39:05.296Z,77.90
2023-04-23T07:40:05.353Z,84.70
2023-04-23T07:41:05.274Z,92.80
2023-04-23T07:42:05.280Z,108.30
2023-04-23T07:43:05.268Z,113.40
2023-04-23T07:44:05.271Z,107.70
2023-04-23T07:45:06.052Z,107.80
2023-04-23T07:46:05.262Z,112.90
2023-04-23T07:47:05.231Z,105.80
2023-04-23T07:48:05.234Z,128.30
2023-04-23T07:49:05.204Z,132.70
2023-04-23T07:50:05.225Z,111.70
2023-04-23T07:51:05.183Z,222.80
2023-04-23T07:52:05.172Z,133.00
2023-04-23T07:53:05.174Z,76.80
2023-04-23T07:54:05.138Z,269.40
2023-04-23T07:55:05.207Z,376.10
2023-04-23T07:56:05.121Z,69.70
2023-04-23T07:57:05.148Z,74.40
2023-04-23T07:58:05.107Z,68.00
2023-04-23T07:59:05.107Z,197.00
2023-04-23T08:00:05.139Z,57.30
2023-04-23T08:01:05.104Z,160.80
2023-04-23T08:02:05.113Z,137.90
2023-04-23T08:03:05.153Z,51.40
2023-04-23T08:04:05.269Z,63.70
2023-04-23T08:05:05.126Z,52.30
2023-04-23T08:06:05.023Z,52.60
2023-04-23T08:07:05.001Z,318.30
2023-04-23T08:08:05.017Z,152.20
2023-04-23T08:09:04.983Z,269.70
2023-04-23T08:10:05.007Z,123.20
2023-04-23T08:11:04.996Z,67.40
2023-04-23T08:12:04.987Z,355.50
2023-04-23T08:13:04.922Z,126.70
2023-04-23T08:14:04.903Z,52.70
2023-04-23T08:15:04.951Z,195.20
2023-04-23T08:16:04.909Z,192.20
2023-04-23T08:17:04.902Z,26.00
2023-04-23T08:18:04.906Z,43.10
2023-04-23T08:19:06.223Z,54.60
2023-04-23T08:20:04.886Z,314.60
2023-04-23T08:21:04.822Z,62.20
2023-04-23T08:22:04.847Z,32.90
2023-04-23T08:23:04.818Z,303.20
2023-04-23T08:24:04.833Z,219.20
2023-04-23T08:25:04.861Z,133.20
2023-04-23T08:26:04.799Z,34.70
2023-04-23T08:27:04.809Z,26.30
2023-04-23T08:28:05.001Z,29.90
2023-04-23T08:29:04.772Z,34.20
2023-04-23T08:30:04.798Z,33.80
2023-04-23T08:31:15.130Z,227.70
2023-04-23T08:32:05.795Z,48.50
2023-04-23T08:33:04.755Z,125.00
2023-04-23T08:34:04.704Z,41.50
2023-04-23T08:35:04.749Z,357.70
2023-04-23T08:36:04.691Z,265.90
2023-04-23T08:37:04.873Z,182.00
2023-04-23T08:38:04.668Z,240.80
2023-04-23T08:39:04.644Z,331.50
2023-04-23T08:40:04.653Z,347.00
2023-04-23T08:41:04.604Z,364.20
2023-04-23T08:42:04.583Z,248.20
2023-04-23T08:43:04.611Z,210.10
2023-04-23T08:44:04.583Z,216.00
2023-04-23T08:45:04.649Z,183.90
2023-04-23T08:46:04.571Z,225.80
2023-04-23T08:47:04.630Z,216.10
2023-04-23T08:48:04.558Z,199.20
2023-04-23T08:49:04.530Z,266.90
2023-04-23T08:50:04.569Z,250.70
2023-04-23T08:51:04.504Z,380.50
2023-04-23T08:52:04.502Z,338.80
2023-04-23T08:53:04.496Z,285.30
2023-04-23T08:54:04.481Z,220.40
2023-04-23T08:55:04.520Z,248.80
2023-04-23T08:56:04.465Z,364.40
2023-04-23T08:57:04.441Z,353.50
2023-04-23T08:58:04.433Z,205.80
2023-04-23T08:59:04.428Z,268.20
2023-04-23T09:00:04.475Z,314.60
2023-04-23T09:01:04.449Z,411.50
2023-04-23T09:02:04.470Z,470.00
2023-04-23T09:03:04.597Z,357.10
2023-04-23T09:04:04.385Z,482.30
2023-04-23T09:05:04.678Z,610.20
2023-04-23T09:06:04.348Z,582.40
2023-04-23T09:07:04.396Z,571.80
2023-04-23T09:08:04.333Z,536.80
2023-04-23T09:09:04.318Z,584.90
2023-04-23T09:10:04.414Z,572.20
2023-04-23T09:11:04.316Z,606.60
2023-04-23T09:12:04.263Z,492.90
2023-04-23T09:13:04.276Z,588.70
2023-04-23T09:14:04.246Z,457.90
2023-04-23T09:15:04.361Z,460.60
2023-04-23T09:16:04.214Z,380.80
2023-04-23T09:17:04.232Z,342.00
2023-04-23T09:18:04.243Z,366.90
2023-04-23T09:19:04.223Z,416.90
2023-04-23T09:20:04.240Z,381.80
2023-04-23T09:21:04.179Z,381.80
2023-04-23T09:22:04.165Z,368.10
2023-04-23T09:23:04.158Z,389.80
2023-04-23T09:24:04.144Z,355.60
2023-04-23T09:25:04.216Z,342.00
2023-04-23T09:26:04.119Z,218.30
2023-04-23T09:27:04.135Z,194.90
2023-04-23T09:28:04.082Z,143.40
2023-04-23T09:29:04.080Z,104.10
2023-04-23T09:30:04.118Z,31.60
2023-04-23T09:31:04.079Z,31.30
2023-04-23T09:32:04.085Z,56.40
2023-04-23T09:33:04.100Z,44.60
2023-04-23T09:34:04.010Z,42.00
2023-04-23T09:35:04.072Z,61.10
2023-04-23T09:36:04.043Z,68.70
2023-04-23T09:37:04.004Z,40.80
2023-04-23T09:38:03.957Z,61.30
2023-04-23T09:39:03.949Z,156.90
2023-04-23T09:40:03.959Z,56.50
2023-04-23T09:41:03.987Z,98.90
2023-04-23T09:42:03.992Z,82.60
2023-04-23T09:43:03.931Z,141.60
2023-04-23T09:44:03.936Z,66.40
2023-04-23T09:45:03.951Z,135.20
2023-04-23T09:46:03.979Z,45.50
2023-04-23T09:47:03.905Z,66.30
2023-04-23T09:48:04.012Z,72.00
2023-04-23T09:49:03.877Z,54.60
2023-04-23T09:50:03.845Z,102.30
2023-04-23T09:51:03.885Z,107.60
2023-04-23T09:52:03.820Z,151.00
2023-04-23T09:53:03.837Z,133.30
2023-04-23T09:54:03.824Z,237.10
2023-04-23T09:55:03.921Z,137.40
2023-04-23T09:56:03.828Z,238.40
2023-04-23T09:57:03.757Z,151.40
2023-04-23T09:58:03.781Z,125.30
2023-04-23T09:59:03.751Z,91.80
2023-04-23T10:00:17.298Z,95.50
2023-04-23T10:01:04.796Z,84.50
2023-04-23T10:02:03.716Z,62.50
2023-04-23T10:03:03.892Z,62.90
2023-04-23T10:04:03.828Z,60.20
2023-04-23T10:05:14.310Z,163.80
2023-04-23T10:06:04.833Z,80.80
2023-04-23T10:07:17.936Z,250.30
2023-04-23T10:08:04.641Z,197.00
2023-04-23T10:09:03.616Z,113.30
2023-04-23T10:10:03.610Z,252.40
2023-04-23T10:11:17.676Z,90.00
2023-04-23T10:12:04.609Z,81.60
2023-04-23T10:13:03.597Z,330.60
2023-04-23T10:14:03.596Z,77.70
2023-04-23T10:15:03.619Z,233.50
2023-04-23T10:16:14.448Z,103.00
2023-04-23T10:17:04.590Z,108.20
2023-04-23T10:18:03.562Z,306.50
2023-04-23T10:19:03.541Z,213.10
2023-04-23T10:20:03.519Z,181.50
2023-04-23T10:21:03.548Z,327.50
2023-04-23T10:22:18.136Z,92.20
2023-04-23T10:23:04.484Z,222.20
2023-04-23T10:24:03.493Z,263.50
2023-04-23T10:25:03.476Z,153.00
2023-04-23T10:26:03.483Z,81.30
2023-04-23T10:27:03.440Z,89.90
2023-04-23T10:28:03.434Z,58.60
2023-04-23T10:29:03.426Z,57.10
2023-04-23T10:30:05.482Z,441.70
2023-04-23T10:31:03.442Z,380.30
2023-04-23T10:32:03.417Z,437.80
2023-04-23T10:33:03.437Z,516.50
2023-04-23T10:34:03.445Z,418.70
2023-04-23T10:35:03.380Z,486.40
2023-04-23T10:36:03.315Z,584.30
2023-04-23T10:37:03.370Z,629.70
2023-04-23T10:38:03.319Z,172.20
2023-04-23T10:39:03.302Z,327.60
2023-04-23T10:40:03.312Z,294.30
2023-04-23T10:41:03.278Z,318.90
2023-04-23T10:42:03.307Z,249.60
2023-04-23T10:43:03.279Z,190.60
2023-04-23T10:44:03.259Z,96.10
2023-04-23T10:45:13.082Z,74.40
2023-04-23T10:46:04.293Z,97.10
2023-04-23T10:47:03.257Z,136.90
2023-04-23T10:48:03.252Z,127.90
2023-04-23T10:49:03.209Z,56.10
2023-04-23T10:51:24.857Z,83.60
2023-04-23T10:53:03.150Z,308.50
2023-04-23T10:54:03.266Z,127.10
2023-04-23T10:55:03.222Z,183.40
2023-04-23T10:56:03.099Z,167.20
2023-04-23T10:57:03.151Z,140.30
2023-04-23T10:58:03.439Z,215.10
2023-04-23T10:59:03.086Z,167.40
2023-04-23T11:00:03.064Z,137.30
2023-04-23T11:01:03.076Z,191.40
2023-04-23T11:02:03.135Z,109.30
2023-04-23T11:03:03.118Z,190.20
2023-04-23T11:04:03.097Z,256.70
2023-04-23T11:05:03.139Z,216.60
2023-04-23T11:06:03.001Z,327.10
2023-04-23T11:07:03.093Z,340.90
2023-04-23T11:08:11.040Z,358.60
2023-04-23T11:09:03.960Z,438.10
2023-04-23T11:10:02.974Z,432.40
2023-04-23T11:11:02.940Z,435.10
2023-04-23T11:12:02.976Z,462.60
2023-04-23T11:13:02.915Z,486.80
2023-04-23T11:14:02.932Z,462.20
2023-04-23T11:15:02.899Z,566.80
2023-04-23T11:16:02.909Z,596.00
2023-04-23T11:17:02.903Z,619.50
2023-04-23T11:18:02.917Z,511.00
2023-04-23T11:19:02.872Z,556.90
2023-04-23T11:20:02.903Z,581.00
2023-04-23T11:21:02.837Z,576.10
2023-04-23T11:22:02.943Z,570.20
2023-04-23T11:23:02.847Z,562.20
2023-04-23T11:24:02.802Z,596.40
2023-04-23T11:25:02.784Z,728.20
2023-04-23T11:26:02.785Z,731.80
2023-04-23T11:27:02.874Z,591.60
2023-04-23T11:28:02.794Z,579.70
2023-04-23T11:29:02.740Z,578.20
2023-04-23T11:30:02.803Z,561.70
2023-04-23T11:31:02.721Z,553.80
2023-04-23T11:32:03.941Z,540.30
2023-04-23T11:33:02.948Z,539.30
2023-04-23T11:34:02.696Z,549.50
2023-04-23T11:35:02.696Z,532.10
2023-04-23T11:36:02.665Z,561.60
2023-04-23T11:37:02.660Z,575.50
2023-04-23T11:38:02.703Z,533.80
2023-04-23T11:39:02.642Z,393.20
2023-04-23T11:40:02.643Z,416.00
2023-04-23T11:41:02.600Z,389.30
2023-04-23T11:42:02.612Z,372.10
2023-04-23T11:43:02.643Z,366.50
2023-04-23T11:44:02.584Z,288.40
2023-04-23T11:45:02.557Z,341.50
2023-04-23T11:46:02.637Z,342.70
2023-04-23T11:47:02.639Z,322.70
2023-04-23T11:48:02.640Z,353.30
2023-04-23T11:49:02.533Z,321.50
2023-04-23T11:50:02.555Z,180.80
2023-04-23T11:51:02.540Z,25.40
2023-04-23T11:52:02.503Z,28.30
2023-04-23T11:53:02.500Z,85.80
2023-04-23T11:54:02.459Z,39.40
2023-04-23T11:55:02.468Z,81.40
2023-04-23T11:56:02.434Z,43.60
2023-04-23T11:57:02.425Z,54.20
2023-04-23T11:58:02.468Z,57.70
2023-04-23T11:59:02.397Z,26.70
2023-04-23T12:00:02.398Z,51.80
2023-04-23T12:01:02.368Z,38.80
2023-04-23T12:02:02.389Z,80.60
2023-04-23T12:03:02.659Z,47.60
2023-04-23T12:04:02.517Z,38.70
2023-04-23T12:05:02.358Z,52.00
2023-04-23T12:06:02.330Z,93.10
2023-04-23T12:07:08.003Z,26.30
2023-04-23T12:08:03.365Z,32.30
2023-04-23T12:09:02.275Z,28.80
2023-04-23T12:10:02.255Z,87.40
2023-04-23T12:11:02.268Z,38.20
2023-04-23T12:12:02.245Z,61.80
2023-04-23T12:13:02.276Z,380.20
2023-04-23T12:14:02.226Z,290.20
2023-04-23T12:15:02.226Z,138.50
2023-04-23T12:16:02.292Z,32.00
2023-04-23T12:17:02.195Z,30.60
2023-04-23T12:18:02.266Z,29.60
2023-04-23T12:19:02.168Z,64.30
2023-04-23T12:20:02.188Z,91.20
2023-04-23T12:21:02.158Z,68.30
2023-04-23T12:22:02.148Z,331.70
2023-04-23T12:23:02.224Z,307.50
2023-04-23T12:24:02.114Z,255.10
2023-04-23T12:25:02.136Z,143.90
2023-04-23T12:26:02.110Z,47.70
2023-04-23T12:27:02.125Z,80.60
2023-04-23T12:28:02.107Z,296.70
2023-04-23T12:29:02.050Z,210.00
2023-04-23T12:30:03.469Z,45.20
2023-04-23T12:31:02.055Z,334.10
2023-04-23T12:32:02.067Z,267.90
2023-04-23T12:33:02.124Z,242.20
2023-04-23T12:34:02.020Z,294.30